Salt Lake City, Utah
Traffic Map
Current Weather Conditions
Salt Lake City, Utah
Broken Clouds
Broken Clouds
48°
Feels Like: 46°
Wind Chill: 46° Ceiling: 15000
Heat Index: 48° Visibility: 10mi
Dew Point: 34° Wind: 5mph
Humidity: 58% Direction: 290° (WNW)
Pressure: 29.83in Gusts: 0mph
Raw Report DataKSLC 290554Z 29004KT 10SM SCT100 BKN150 09/01 A2983 RMK AO2 SLP083 T00890011 10128 20089 51012
Traffic Incident Summary
Active as of:
Severity:
Category:
InformationThere was an issue retrieving the traffic information for this location. Please try a different location or try again shortly.
Advertisements
Track Severe Weather on mobile